Time;durP1;ratioP1;P1;durP2;ratioP2;P2;SDS_P1;SDS_P2;PMS_P1;PMS_P2;Temp;Humidity;BMP_temperature;BMP_pressure;BME280_temperature;BME280_humidity;BME280_pressure;Samples;Min_cycle;Max_cycle;Signal;HPM_P1;HPM_P2
2022/09/03 00:01:23;;;;;;;13.25;6.97;;;;;;;;;;4748902;30;20032;-74
2022/09/03 00:03:57;;;;;;;7.60;6.38;;;;;;;;;;4748687;30;20044;-72
2022/09/03 00:06:25;;;;;;;13.82;6.30;;;;;;;;;;4751174;30;20037;-74
2022/09/03 00:09:10;;;;;;;14.38;6.55;;;;;;;;;;4753723;30;20024;-74
2022/09/03 00:12:09;;;;;;;12.90;6.65;;;;;;;;;;4754063;30;20490;-74
2022/09/03 00:14:38;;;;;;;10.07;6.05;;;;;;;;;;4751887;30;20085;-74
2022/09/03 00:17:09;;;;;;;12.38;6.20;;;;;;;;;;4751537;30;20052;-74
2022/09/03 00:19:40;;;;;;;9.98;5.70;;;;;;;;;;4751839;30;20069;-74
2022/09/03 00:22:12;;;;;;;12.35;6.40;;;;;;;;;;4751776;30;20042;-74
2022/09/03 00:24:40;;;;;;;11.48;6.38;;;;;;;;;;4751622;30;20040;-74
2022/09/03 00:27:11;;;;;;;16.00;7.65;;;;;;;;;;4751977;30;20538;-74
2022/09/03 00:29:50;;;;;;;11.50;7.63;;;;;;;;;;4751580;30;20051;-74
2022/09/03 00:32:19;;;;;;;11.88;7.43;;;;;;;;;;4751876;30;20043;-74
2022/09/03 00:34:49;;;;;;;15.27;7.10;;;;;;;;;;4751704;30;20029;-73
2022/09/03 00:37:16;;;;;;;12.45;6.78;;;;;;;;;;4751939;30;20036;-74
2022/09/03 00:39:43;;;;;;;12.75;7.88;;;;;;;;;;4751591;30;20037;-74
2022/09/03 00:42:22;;;;;;;14.48;7.53;;;;;;;;;;4751864;30;20036;-73
2022/09/03 00:45:05;;;;;;;14.40;7.72;;;;;;;;;;4751826;30;20060;-74
2022/09/03 00:47:35;;;;;;;13.57;7.72;;;;;;;;;;4751477;30;20038;-74
2022/09/03 00:50:08;;;;;;;9.95;7.43;;;;;;;;;;4752382;30;20048;-74
2022/09/03 00:52:44;;;;;;;11.48;7.07;;;;;;;;;;4753070;30;20040;-73
2022/09/03 00:55:35;;;;;;;10.18;7.07;;;;;;;;;;4753175;30;20410;-74
2022/09/03 00:58:02;;;;;;;8.77;5.88;;;;;;;;;;4767411;30;20024;-74
2022/09/03 01:00:29;;;;;;;15.85;7.30;;;;;;;;;;4753339;30;20044;-74
2022/09/03 01:03:01;;;;;;;13.07;8.15;;;;;;;;;;4753413;30;20036;-74
2022/09/03 01:05:46;;;;;;;11.27;7.32;;;;;;;;;;4753373;30;20450;-75
2022/09/03 01:08:13;;;;;;;11.60;7.78;;;;;;;;;;4752752;30;20050;-73
2022/09/03 01:10:43;;;;;;;10.63;7.07;;;;;;;;;;4753658;30;20089;-74
2022/09/03 01:13:28;;;;;;;12.95;7.05;;;;;;;;;;4767294;30;20028;-73
2022/09/03 01:16:04;;;;;;;9.60;7.43;;;;;;;;;;4752995;30;20040;-74
2022/09/03 01:18:30;;;;;;;10.02;6.55;;;;;;;;;;4751870;30;20542;-73
2022/09/03 01:20:57;;;;;;;9.82;7.30;;;;;;;;;;4752713;30;20032;-73
2022/09/03 01:23:41;;;;;;;11.27;7.22;;;;;;;;;;4753123;30;20040;-74
2022/09/03 01:26:15;;;;;;;12.35;6.85;;;;;;;;;;4753107;30;20032;-74
2022/09/03 01:28:42;;;;;;;10.73;6.82;;;;;;;;;;4752827;30;20032;-74
2022/09/03 01:31:11;;;;;;;14.07;7.32;;;;;;;;;;4753274;30;20036;-73
2022/09/03 01:33:49;;;;;;;16.00;7.05;;;;;;;;;;4752951;30;20031;-73
2022/09/03 01:36:19;;;;;;;9.85;7.18;;;;;;;;;;4765953;30;20205;-74
2022/09/03 01:38:50;;;;;;;10.30;8.15;;;;;;;;;;4752930;30;20038;-73
2022/09/03 01:44:27;;;;;;;13.98;7.80;;;;;;;;;;4752623;30;20410;-74
2022/09/03 01:47:01;;;;;;;9.55;6.00;;;;;;;;;;4750323;30;20431;-74
2022/09/03 01:49:45;;;;;;;8.90;6.45;;;;;;;;;;4750831;30;20056;-74
2022/09/03 01:52:25;;;;;;;10.55;7.38;;;;;;;;;;4750081;30;20036;-74
2022/09/03 01:54:51;;;;;;;12.05;7.47;;;;;;;;;;4739744;30;20035;-74
2022/09/03 01:57:25;;;;;;;13.73;7.28;;;;;;;;;;4733171;30;20052;-74
2022/09/03 02:00:06;;;;;;;11.57;7.13;;;;;;;;;;4732509;30;20035;-74
2022/09/03 02:02:34;;;;;;;12.13;6.72;;;;;;;;;;4732834;30;20048;-74
2022/09/03 02:05:07;;;;;;;11.93;6.97;;;;;;;;;;4732500;30;20418;-74
2022/09/03 02:07:46;;;;;;;9.13;7.03;;;;;;;;;;4732624;30;20033;-74
2022/09/03 02:10:19;;;;;;;10.35;7.05;;;;;;;;;;4732290;30;20165;-74
2022/09/03 02:12:48;;;;;;;7.30;6.05;;;;;;;;;;4732866;30;20514;-74
2022/09/03 02:15:16;;;;;;;10.98;6.40;;;;;;;;;;4733060;30;20549;-74
2022/09/03 02:17:44;;;;;;;9.45;6.47;;;;;;;;;;4732660;30;20078;-74
2022/09/03 02:20:15;;;;;;;10.27;6.40;;;;;;;;;;4732349;30;20542;-74
2022/09/03 02:22:42;;;;;;;8.20;6.10;;;;;;;;;;4732359;30;20051;-74
2022/09/03 02:25:09;;;;;;;7.82;6.38;;;;;;;;;;4752060;30;20088;-73
2022/09/03 02:27:37;;;;;;;11.77;5.80;;;;;;;;;;4752067;30;20519;-74
2022/09/03 02:30:03;;;;;;;14.43;6.57;;;;;;;;;;4752178;30;20032;-74
2022/09/03 02:32:30;;;;;;;7.07;5.78;;;;;;;;;;4752320;30;20032;-73
2022/09/03 02:34:56;;;;;;;10.40;5.90;;;;;;;;;;4751890;30;20066;-74
2022/09/03 02:37:23;;;;;;;10.60;6.07;;;;;;;;;;4751931;30;20036;-74
2022/09/03 02:39:50;;;;;;;7.35;6.15;;;;;;;;;;4751776;30;20036;-74
2022/09/03 02:42:18;;;;;;;10.90;6.93;;;;;;;;;;4752188;30;20032;-74
2022/09/03 02:44:46;;;;;;;10.23;6.43;;;;;;;;;;4750733;30;20464;-74
2022/09/03 02:47:13;;;;;;;11.05;6.88;;;;;;;;;;4752082;30;20483;-74
2022/09/03 02:49:40;;;;;;;10.02;6.85;;;;;;;;;;4751193;30;20033;-74
2022/09/03 02:52:08;;;;;;;9.93;7.07;;;;;;;;;;4751970;30;20036;-74
2022/09/03 02:54:38;;;;;;;9.63;6.63;;;;;;;;;;4751806;30;20590;-74
2022/09/03 02:57:13;;;;;;;9.38;6.47;;;;;;;;;;4751620;30;20032;-74
2022/09/03 02:59:40;;;;;;;14.98;7.78;;;;;;;;;;4751328;30;20483;-74
2022/09/03 03:02:07;;;;;;;13.35;7.85;;;;;;;;;;4751738;30;20058;-74
2022/09/03 03:04:33;;;;;;;7.88;7.05;;;;;;;;;;4751127;30;20036;-74
2022/09/03 03:07:00;;;;;;;13.13;7.22;;;;;;;;;;4751362;30;20029;-74
2022/09/03 03:09:26;;;;;;;11.90;7.03;;;;;;;;;;4751703;30;20032;-74
2022/09/03 03:11:54;;;;;;;11.35;7.15;;;;;;;;;;4764924;30;20039;-74
2022/09/03 03:14:21;;;;;;;10.57;6.82;;;;;;;;;;4751882;30;20036;-73
2022/09/03 03:16:48;;;;;;;11.32;7.07;;;;;;;;;;4751343;30;20044;-74
2022/09/03 03:19:14;;;;;;;13.05;6.70;;;;;;;;;;4751137;30;20047;-74
2022/09/03 03:21:40;;;;;;;8.35;6.43;;;;;;;;;;4751678;30;20518;-74
2022/09/03 03:24:07;;;;;;;12.27;6.35;;;;;;;;;;4751453;30;20040;-74
2022/09/03 03:26:34;;;;;;;9.27;6.88;;;;;;;;;;4751573;30;20028;-74
2022/09/03 03:29:03;;;;;;;9.20;7.03;;;;;;;;;;4751158;30;20086;-74
2022/09/03 03:31:30;;;;;;;15.80;7.28;;;;;;;;;;4750955;30;20036;-74
2022/09/03 03:33:57;;;;;;;10.93;6.28;;;;;;;;;;4751184;30;20034;-73
2022/09/03 03:36:25;;;;;;;11.95;6.90;;;;;;;;;;4751560;30;20074;-73
2022/09/03 03:38:54;;;;;;;13.15;6.95;;;;;;;;;;4751336;30;20402;-74
2022/09/03 03:41:22;;;;;;;17.05;8.13;;;;;;;;;;4751877;30;20058;-74
2022/09/03 03:43:56;;;;;;;11.63;7.38;;;;;;;;;;4754882;30;20044;-73
2022/09/03 03:46:23;;;;;;;14.43;7.25;;;;;;;;;;4754212;30;20024;-74
2022/09/03 03:48:50;;;;;;;10.88;6.47;;;;;;;;;;4754761;30;20401;-74
2022/09/03 03:51:18;;;;;;;11.32;7.10;;;;;;;;;;4754491;30;20032;-74
2022/09/03 03:53:44;;;;;;;9.45;6.85;;;;;;;;;;4754372;30;20066;-74
2022/09/03 03:56:12;;;;;;;12.60;5.85;;;;;;;;;;4754439;30;20395;-74
2022/09/03 03:58:41;;;;;;;10.32;5.75;;;;;;;;;;4754743;30;20036;-74
2022/09/03 04:01:09;;;;;;;9.65;6.30;;;;;;;;;;4754055;30;20038;-74
2022/09/03 04:03:36;;;;;;;11.80;6.57;;;;;;;;;;4754756;30;20040;-73
2022/09/03 04:06:03;;;;;;;13.77;6.80;;;;;;;;;;4754241;30;20042;-73
2022/09/03 04:08:30;;;;;;;16.27;6.53;;;;;;;;;;4754555;30;20020;-74
2022/09/03 04:11:00;;;;;;;11.80;6.95;;;;;;;;;;4754333;30;20038;-73
2022/09/03 04:13:30;;;;;;;10.35;6.63;;;;;;;;;;4754947;30;20030;-74
2022/09/03 04:16:20;;;;;;;14.30;7.30;;;;;;;;;;4753881;30;20466;-74
2022/09/03 04:18:48;;;;;;;9.30;6.75;;;;;;;;;;4753499;30;20056;-73
2022/09/03 04:21:16;;;;;;;9.43;7.00;;;;;;;;;;4753915;30;20050;-74
2022/09/03 04:23:43;;;;;;;12.30;7.00;;;;;;;;;;4754016;30;20040;-74
2022/09/03 04:26:11;;;;;;;15.70;7.38;;;;;;;;;;4754021;30;20138;-74
2022/09/03 04:28:38;;;;;;;9.55;7.03;;;;;;;;;;4767427;30;20502;-74
2022/09/03 04:31:08;;;;;;;11.80;6.55;;;;;;;;;;4753445;30;20032;-74
2022/09/03 04:33:37;;;;;;;9.85;6.40;;;;;;;;;;4753851;30;20036;-72
2022/09/03 04:36:04;;;;;;;10.20;6.82;;;;;;;;;;4753985;30;20413;-74
2022/09/03 04:38:31;;;;;;;10.63;6.55;;;;;;;;;;4753898;30;20096;-72
2022/09/03 04:40:59;;;;;;;8.15;6.30;;;;;;;;;;4753559;30;20513;-73
2022/09/03 04:43:25;;;;;;;9.70;6.32;;;;;;;;;;4753644;30;20032;-73
2022/09/03 04:45:55;;;;;;;10.55;6.57;;;;;;;;;;4753272;30;20028;-73
2022/09/03 04:48:21;;;;;;;8.60;6.63;;;;;;;;;;4753398;30;20383;-74
2022/09/03 04:50:48;;;;;;;8.85;6.50;;;;;;;;;;4753479;30;20036;-74
2022/09/03 04:53:15;;;;;;;8.18;6.38;;;;;;;;;;4753359;30;20495;-74
2022/09/03 04:55:42;;;;;;;7.60;6.05;;;;;;;;;;4753226;30;20029;-74
2022/09/03 04:58:08;;;;;;;10.38;6.00;;;;;;;;;;4753372;30;20038;-74
2022/09/03 05:00:38;;;;;;;9.60;6.10;;;;;;;;;;4753158;30;20514;-74
2022/09/03 05:03:04;;;;;;;9.63;6.00;;;;;;;;;;4753375;30;20043;-74
2022/09/03 05:05:32;;;;;;;9.63;6.78;;;;;;;;;;4753292;30;20039;-74
2022/09/03 05:08:00;;;;;;;13.07;6.65;;;;;;;;;;4752212;30;20043;-74
2022/09/03 05:10:27;;;;;;;8.52;6.85;;;;;;;;;;4753035;30;20032;-74
2022/09/03 05:13:06;;;;;;;7.55;6.40;;;;;;;;;;4752953;30;20034;-72
2022/09/03 05:15:33;;;;;;;8.40;7.05;;;;;;;;;;4753337;30;20028;-74
2022/09/03 05:18:00;;;;;;;10.73;6.90;;;;;;;;;;4752860;30;20036;-75
2022/09/03 05:20:28;;;;;;;12.13;8.18;;;;;;;;;;4752880;30;20513;-74
2022/09/03 05:22:56;;;;;;;8.70;7.22;;;;;;;;;;4766578;30;20044;-74
2022/09/03 05:25:23;;;;;;;15.18;7.88;;;;;;;;;;4753126;30;20036;-74
2022/09/03 05:27:50;;;;;;;8.73;6.88;;;;;;;;;;4752529;30;20025;-74
2022/09/03 05:30:16;;;;;;;13.60;8.23;;;;;;;;;;4752876;30;20495;-73
2022/09/03 05:32:43;;;;;;;10.07;8.38;;;;;;;;;;4752790;30;20403;-74
2022/09/03 05:35:09;;;;;;;12.50;7.57;;;;;;;;;;4753133;30;20025;-74
2022/09/03 05:37:36;;;;;;;10.15;6.82;;;;;;;;;;4753198;30;20077;-74
2022/09/03 05:40:03;;;;;;;10.25;6.65;;;;;;;;;;4753120;30;20046;-73
2022/09/03 05:42:31;;;;;;;10.32;5.97;;;;;;;;;;4752121;30;20034;-74
2022/09/03 05:44:57;;;;;;;9.80;6.60;;;;;;;;;;4752958;30;20055;-74
2022/09/03 05:47:23;;;;;;;13.10;6.30;;;;;;;;;;4753071;30;20028;-73
2022/09/03 05:49:50;;;;;;;10.88;6.28;;;;;;;;;;4752799;30;20028;-73
2022/09/03 05:52:18;;;;;;;9.48;6.75;;;;;;;;;;4752506;30;20034;-74
2022/09/03 05:54:45;;;;;;;6.57;5.88;;;;;;;;;;4752331;30;20028;-74
2022/09/03 05:57:13;;;;;;;10.02;5.90;;;;;;;;;;4752435;30;20040;-73
2022/09/03 05:59:39;;;;;;;12.10;6.72;;;;;;;;;;4752506;30;20025;-74
2022/09/03 06:02:05;;;;;;;11.75;7.20;;;;;;;;;;4752339;30;20032;-74
2022/09/03 06:04:32;;;;;;;11.48;6.68;;;;;;;;;;4751593;30;20043;-74
2022/09/03 06:06:58;;;;;;;10.02;6.63;;;;;;;;;;4752231;30;20032;-74
2022/09/03 06:09:25;;;;;;;11.63;6.97;;;;;;;;;;4752511;30;20042;-73
2022/09/03 06:11:52;;;;;;;11.57;6.80;;;;;;;;;;4751637;30;20038;-74
2022/09/03 06:14:19;;;;;;;7.50;5.97;;;;;;;;;;4752083;30;20092;-74
2022/09/03 06:16:51;;;;;;;7.75;5.13;;;;;;;;;;4752432;30;20021;-73
2022/09/03 06:19:18;;;;;;;8.52;5.20;;;;;;;;;;4752428;30;20103;-73
2022/09/03 06:21:45;;;;;;;6.40;5.10;;;;;;;;;;4751755;30;20033;-74
2022/09/03 06:24:12;;;;;;;11.48;5.60;;;;;;;;;;4752276;30;20044;-74
2022/09/03 06:26:39;;;;;;;6.22;5.35;;;;;;;;;;4751498;30;20501;-73
2022/09/03 06:29:07;;;;;;;5.43;4.88;;;;;;;;;;4751873;30;20044;-74
2022/09/03 06:31:34;;;;;;;9.05;5.45;;;;;;;;;;4751858;30;20073;-74
2022/09/03 06:34:00;;;;;;;8.07;6.00;;;;;;;;;;4751815;30;20066;-74
2022/09/03 06:36:27;;;;;;;10.25;6.60;;;;;;;;;;4751984;30;20112;-73
2022/09/03 06:38:54;;;;;;;8.13;6.05;;;;;;;;;;4751701;30;20032;-74
2022/09/03 06:41:23;;;;;;;13.05;6.25;;;;;;;;;;4751293;30;20040;-73
2022/09/03 06:43:51;;;;;;;7.88;6.15;;;;;;;;;;4751583;30;20422;-74
2022/09/03 06:46:19;;;;;;;13.20;5.20;;;;;;;;;;4751453;30;20024;-73
2022/09/03 06:48:46;;;;;;;7.47;5.10;;;;;;;;;;4751651;30;20039;-73
2022/09/03 06:51:16;;;;;;;6.25;4.57;;;;;;;;;;4751699;30;20028;-73
2022/09/03 06:53:44;;;;;;;5.63;4.40;;;;;;;;;;4751684;30;20044;-74
2022/09/03 06:56:15;;;;;;;8.52;5.30;;;;;;;;;;4751192;30;20032;-74
2022/09/03 06:58:43;;;;;;;6.70;4.88;;;;;;;;;;4751664;30;20036;-74
2022/09/03 07:01:14;;;;;;;7.82;5.13;;;;;;;;;;4751310;30;20028;-73
2022/09/03 07:03:41;;;;;;;8.07;4.90;;;;;;;;;;4751749;30;20036;-74
2022/09/03 07:06:09;;;;;;;7.70;4.88;;;;;;;;;;4751588;30;20043;-74
2022/09/03 07:08:35;;;;;;;7.28;4.60;;;;;;;;;;4751418;30;20025;-73
2022/09/03 07:11:08;;;;;;;7.70;4.43;;;;;;;;;;4750968;30;20039;-74
2022/09/03 07:13:35;;;;;;;7.30;4.40;;;;;;;;;;4751464;30;20519;-73
2022/09/03 07:16:06;;;;;;;8.57;4.40;;;;;;;;;;4751809;30;20062;-73
2022/09/03 07:18:33;;;;;;;5.90;4.20;;;;;;;;;;4754871;30;20400;-74
2022/09/03 07:21:00;;;;;;;12.27;3.90;;;;;;;;;;4755226;30;20036;-74
2022/09/03 07:23:27;;;;;;;5.85;4.10;;;;;;;;;;4754720;30;20032;-74
2022/09/03 07:25:57;;;;;;;4.18;3.78;;;;;;;;;;4754742;30;20066;-74
2022/09/03 07:28:24;;;;;;;6.32;3.83;;;;;;;;;;4755103;30;20401;-74
2022/09/03 07:30:54;;;;;;;6.78;3.75;;;;;;;;;;4755002;30;20028;-74
2022/09/03 07:33:21;;;;;;;3.85;2.78;;;;;;;;;;4755174;30;20032;-74
2022/09/03 07:35:47;;;;;;;7.13;3.15;;;;;;;;;;4754912;30;20047;-74
2022/09/03 07:38:18;;;;;;;3.08;2.55;;;;;;;;;;4754512;30;20020;-74
2022/09/03 07:40:45;;;;;;;;;;;;;;;;;;4755099;30;20036;-73
2022/09/03 07:43:12;;;;;;;3.72;2.78;;;;;;;;;;4754603;30;19922;-74
2022/09/03 07:45:40;;;;;;;5.85;2.70;;;;;;;;;;4754526;30;20033;-74
2022/09/03 07:48:06;;;;;;;4.30;2.58;;;;;;;;;;4754584;30;20398;-74
2022/09/03 07:50:38;;;;;;;7.28;2.67;;;;;;;;;;4754622;30;20440;-75
2022/09/03 07:53:04;;;;;;;7.25;2.80;;;;;;;;;;4754140;30;20031;-74
2022/09/03 07:55:30;;;;;;;5.00;2.10;;;;;;;;;;4754186;30;20044;-74
2022/09/03 07:57:58;;;;;;;3.75;2.40;;;;;;;;;;4754642;30;20024;-75
2022/09/03 08:00:25;;;;;;;2.33;2.10;;;;;;;;;;4754470;30;20040;-75
2022/09/03 08:02:52;;;;;;;4.15;2.05;;;;;;;;;;4768234;30;20044;-74
2022/09/03 08:05:20;;;;;;;2.30;2.08;;;;;;;;;;4754195;30;20029;-74
2022/09/03 08:07:47;;;;;;;4.38;2.42;;;;;;;;;;4753771;30;20039;-74
2022/09/03 08:10:15;;;;;;;3.60;2.30;;;;;;;;;;4767833;30;20429;-75
2022/09/03 08:12:41;;;;;;;3.13;2.35;;;;;;;;;;4754398;30;20024;-74
2022/09/03 08:15:08;;;;;;;3.55;2.38;;;;;;;;;;4754125;30;20487;-74
2022/09/03 08:17:34;;;;;;;3.15;2.33;;;;;;;;;;4753886;30;20044;-74
2022/09/03 08:20:01;;;;;;;2.75;2.30;;;;;;;;;;4754077;30;20043;-74
2022/09/03 08:22:28;;;;;;;3.60;2.10;;;;;;;;;;4753456;30;20067;-74
2022/09/03 08:24:54;;;;;;;3.15;2.50;;;;;;;;;;4767359;30;20048;-74
2022/09/03 08:27:24;;;;;;;2.95;2.03;;;;;;;;;;4753507;30;20032;-74
2022/09/03 08:29:50;;;;;;;5.22;2.40;;;;;;;;;;4753839;30;20028;-74
2022/09/03 08:32:16;;;;;;;3.33;2.00;;;;;;;;;;4753806;30;20082;-74
2022/09/03 08:34:43;;;;;;;1.80;1.70;;;;;;;;;;4753966;30;20038;-74
2022/09/03 08:37:11;;;;;;;5.28;2.17;;;;;;;;;;4753607;30;20391;-74
2022/09/03 08:39:38;;;;;;;2.85;1.52;;;;;;;;;;4753942;30;20032;-74
2022/09/03 08:42:17;;;;;;;1.73;1.63;;;;;;;;;;4753577;30;20038;-74
2022/09/03 08:44:48;;;;;;;1.63;1.42;;;;;;;;;;4753612;30;20046;-74
2022/09/03 08:47:21;;;;;;;2.97;2.05;;;;;;;;;;4782228;30;20032;-74
2022/09/03 08:50:06;;;;;;;3.05;1.95;;;;;;;;;;4753411;30;20047;-74
2022/09/03 08:52:37;;;;;;;1.77;1.67;;;;;;;;;;4753233;30;20047;-74
2022/09/03 08:55:17;;;;;;;1.73;1.60;;;;;;;;;;4753566;30;20043;-75
2022/09/03 08:57:46;;;;;;;5.15;1.70;;;;;;;;;;4753511;30;20035;-75
2022/09/03 09:00:13;;;;;;;1.73;1.38;;;;;;;;;;4753208;30;20040;-74
2022/09/03 09:02:46;;;;;;;1.77;1.50;;;;;;;;;;4753352;30;20033;-74
2022/09/03 09:05:15;;;;;;;2.67;1.90;;;;;;;;;;4753024;30;20040;-74
2022/09/03 09:07:50;;;;;;;2.80;1.70;;;;;;;;;;4753569;30;20034;-74
2022/09/03 09:10:40;;;;;;;2.95;2.00;;;;;;;;;;4753257;30;20349;-74
2022/09/03 09:13:16;;;;;;;2.00;1.80;;;;;;;;;;4753109;30;20032;-74
2022/09/03 09:16:01;;;;;;;2.00;1.80;;;;;;;;;;4753009;30;20491;-74
2022/09/03 09:18:27;;;;;;;2.05;1.80;;;;;;;;;;4752928;30;20060;-74
2022/09/03 09:20:54;;;;;;;4.43;1.80;;;;;;;;;;4752688;30;20050;-75
2022/09/03 09:23:31;;;;;;;3.28;1.92;;;;;;;;;;4753109;30;20034;-74
2022/09/03 09:26:00;;;;;;;4.20;2.00;;;;;;;;;;4753358;30;20044;-74
2022/09/03 09:28:33;;;;;;;2.53;2.33;;;;;;;;;;4753286;30;20494;-75
2022/09/03 09:31:01;;;;;;;3.13;2.47;;;;;;;;;;4766624;30;20505;-75
2022/09/03 09:33:31;;;;;;;2.70;1.90;;;;;;;;;;4752869;30;20487;-74
2022/09/03 09:36:07;;;;;;;2.15;1.50;;;;;;;;;;4752449;30;20032;-74
2022/09/03 09:38:35;;;;;;;2.38;1.75;;;;;;;;;;4752464;30;20038;-74
2022/09/03 09:41:11;;;;;;;3.70;1.60;;;;;;;;;;4752239;30;20380;-75
2022/09/03 09:43:38;;;;;;;2.75;1.50;;;;;;;;;;4752625;30;20044;-74
2022/09/03 09:46:21;;;;;;;3.38;1.60;;;;;;;;;;4752732;30;20065;-75
2022/09/03 09:48:50;;;;;;;1.30;1.20;;;;;;;;;;4752526;30;20039;-74
2022/09/03 09:51:22;;;;;;;2.27;1.50;;;;;;;;;;4752464;30;20028;-74
2022/09/03 09:53:49;;;;;;;1.40;1.30;;;;;;;;;;4752303;30;20817;-74
2022/09/03 09:56:25;;;;;;;1.80;1.65;;;;;;;;;;4752458;30;20036;-74
2022/09/03 09:59:04;;;;;;;3.00;1.55;;;;;;;;;;4752388;30;20380;-74
2022/09/03 10:01:30;;;;;;;1.42;1.33;;;;;;;;;;4752517;30;20495;-74
2022/09/03 10:03:58;;;;;;;1.42;1.30;;;;;;;;;;4751654;30;20418;-75
2022/09/03 10:09:12;;;;;;;2.47;1.38;;;;;;;;;;4752324;30;20048;-74
2022/09/03 10:11:41;;;;;;;5.05;1.40;;;;;;;;;;4752281;30;20521;-74
2022/09/03 10:14:16;;;;;;;2.90;1.52;;;;;;;;;;4752459;30;20032;-74
2022/09/03 10:16:48;;;;;;;4.55;1.10;;;;;;;;;;4752473;30;20036;-74
2022/09/03 10:19:18;;;;;;;1.92;1.13;;;;;;;;;;4751659;30;20089;-74
2022/09/03 10:21:58;;;;;;;1.88;1.25;;;;;;;;;;4752176;30;20039;-74
2022/09/03 10:24:24;;;;;;;1.45;1.35;;;;;;;;;;4751839;30;20491;-74
2022/09/03 10:26:51;;;;;;;1.30;1.20;;;;;;;;;;4751961;30;20036;-74
2022/09/03 10:29:20;;;;;;;1.50;1.40;;;;;;;;;;4751882;30;20032;-74
2022/09/03 10:31:54;;;;;;;1.67;1.30;;;;;;;;;;4751842;30;20032;-74
2022/09/03 10:34:35;;;;;;;2.08;1.33;;;;;;;;;;4751560;30;20032;-74
2022/09/03 10:37:10;;;;;;;1.27;1.17;;;;;;;;;;4751850;30;20026;-74
2022/09/03 10:39:39;;;;;;;2.20;1.00;;;;;;;;;;4751646;30;20016;-74
2022/09/03 10:42:06;;;;;;;2.00;1.33;;;;;;;;;;4751711;30;20403;-74
2022/09/03 10:44:45;;;;;;;1.30;1.20;;;;;;;;;;4751514;30;20048;-74
2022/09/03 10:47:11;;;;;;;1.90;1.40;;;;;;;;;;4751440;30;20486;-74
2022/09/03 10:49:45;;;;;;;1.77;1.10;;;;;;;;;;4751737;30;20036;-75
2022/09/03 10:52:17;;;;;;;1.40;1.30;;;;;;;;;;4765207;30;20056;-74
2022/09/03 10:54:43;;;;;;;1.20;1.10;;;;;;;;;;4751454;30;20028;-74
2022/09/03 10:57:16;;;;;;;1.85;1.02;;;;;;;;;;4751465;30;20511;-74
2022/09/03 10:59:43;;;;;;;2.33;1.30;;;;;;;;;;4751592;30;20101;-74
2022/09/03 11:02:34;;;;;;;2.08;1.50;;;;;;;;;;4751512;30;20031;-74
2022/09/03 11:05:08;;;;;;;2.67;1.27;;;;;;;;;;4751206;30;20036;-75
2022/09/03 11:07:36;;;;;;;3.72;1.30;;;;;;;;;;4751663;30;20031;-74
2022/09/03 11:10:05;;;;;;;1.50;1.30;;;;;;;;;;4751711;30;20040;-74
2022/09/03 11:12:38;;;;;;;1.65;1.20;;;;;;;;;;4751292;30;20040;-74
2022/09/03 11:15:17;;;;;;;1.75;1.27;;;;;;;;;;4751689;30;20035;-74
2022/09/03 11:17:48;;;;;;;2.25;1.10;;;;;;;;;;4751016;30;20048;-74
2022/09/03 11:20:15;;;;;;;1.73;1.13;;;;;;;;;;4751678;30;20089;-74
2022/09/03 11:22:43;;;;;;;3.08;1.30;;;;;;;;;;4751493;30;20044;-74
2022/09/03 11:25:11;;;;;;;1.40;1.30;;;;;;;;;;4751177;30;20040;-74
2022/09/03 11:27:40;;;;;;;2.72;1.30;;;;;;;;;;4764972;30;20036;-74
2022/09/03 11:30:08;;;;;;;2.23;1.30;;;;;;;;;;4750938;30;20387;-74
2022/09/03 11:32:48;;;;;;;2.83;1.17;;;;;;;;;;4751517;30;20028;-75
2022/09/03 11:35:16;;;;;;;1.30;1.20;;;;;;;;;;4751212;30;20036;-74
2022/09/03 11:37:59;;;;;;;1.50;1.15;;;;;;;;;;4751576;30;20028;-74
2022/09/03 11:40:45;;;;;;;1.60;1.25;;;;;;;;;;4751213;30;20028;-74
2022/09/03 11:43:24;;;;;;;2.85;1.00;;;;;;;;;;4748852;30;20530;-74
2022/09/03 11:46:12;;;;;;;2.80;1.00;;;;;;;;;;4748673;30;20056;-74
2022/09/03 11:48:42;;;;;;;1.00;0.90;;;;;;;;;;4748998;30;20526;-74
2022/09/03 11:51:17;;;;;;;1.10;1.10;;;;;;;;;;4748965;30;20032;-74
2022/09/03 11:53:53;;;;;;;1.60;1.20;;;;;;;;;;4749055;30;20040;-74
2022/09/03 11:56:19;;;;;;;1.95;1.15;;;;;;;;;;4748905;30;20040;-74
2022/09/03 11:58:46;;;;;;;1.00;0.90;;;;;;;;;;4749195;30;20449;-74
2022/09/03 12:01:14;;;;;;;5.05;1.20;;;;;;;;;;4748523;29;20040;-74
2022/09/03 12:03:45;;;;;;;1.20;1.10;;;;;;;;;;4751505;30;20056;-74
2022/09/03 12:06:30;;;;;;;0.85;0.85;;;;;;;;;;4752256;30;20050;-74
2022/09/03 12:08:59;;;;;;;1.92;1.13;;;;;;;;;;4752213;30;20038;-75
2022/09/03 12:11:35;;;;;;;1.25;1.15;;;;;;;;;;4737933;30;20047;-74
2022/09/03 12:14:04;;;;;;;1.38;1.00;;;;;;;;;;4752089;29;20052;-75
2022/09/03 12:16:38;;;;;;;3.45;1.10;;;;;;;;;;4752189;30;20036;-74
2022/09/03 12:19:09;;;;;;;3.95;1.20;;;;;;;;;;4751657;30;20084;-75
2022/09/03 12:21:39;;;;;;;1.00;1.00;;;;;;;;;;4753982;30;20040;-75
2022/09/03 12:24:06;;;;;;;1.52;1.10;;;;;;;;;;4753980;30;20036;-75
2022/09/03 12:26:38;;;;;;;3.00;1.00;;;;;;;;;;4754064;30;20024;-75
2022/09/03 12:29:05;;;;;;;1.00;1.00;;;;;;;;;;4753441;30;20121;-75
2022/09/03 12:31:33;;;;;;;1.63;1.27;;;;;;;;;;4753771;30;20513;-75
2022/09/03 12:34:00;;;;;;;1.40;1.00;;;;;;;;;;4753554;30;20032;-75
2022/09/03 12:36:35;;;;;;;1.50;1.40;;;;;;;;;;4753734;30;20483;-75
2022/09/03 12:39:29;;;;;;;1.23;1.13;;;;;;;;;;4753802;30;20039;-75
2022/09/03 12:42:04;;;;;;;1.35;1.25;;;;;;;;;;4753398;30;20051;-75
2022/09/03 12:44:32;;;;;;;1.30;1.20;;;;;;;;;;4753164;30;20048;-74
2022/09/03 12:47:01;;;;;;;1.38;1.27;;;;;;;;;;4753508;30;20044;-74
2022/09/03 12:49:33;;;;;;;1.67;1.33;;;;;;;;;;4753466;30;20043;-75
2022/09/03 12:52:09;;;;;;;2.42;1.20;;;;;;;;;;4753423;30;20487;-75
2022/09/03 12:54:40;;;;;;;1.42;1.33;;;;;;;;;;4753290;30;20425;-75
2022/09/03 12:57:08;;;;;;;1.40;1.20;;;;;;;;;;4752978;30;20025;-75
2022/09/03 12:59:36;;;;;;;1.85;1.33;;;;;;;;;;4753271;30;20035;-75
2022/09/03 13:02:06;;;;;;;2.58;1.10;;;;;;;;;;4753254;30;20028;-75
2022/09/03 13:04:35;;;;;;;1.50;1.15;;;;;;;;;;4753118;30;20044;-75
2022/09/03 13:07:02;;;;;;;;;;;;;;;;;;4753479;30;20394;-75
2022/09/03 13:09:30;;;;;;;1.30;1.20;;;;;;;;;;4753165;30;19913;-75
2022/09/03 13:12:04;;;;;;;1.52;1.42;;;;;;;;;;4752717;30;20035;-75
2022/09/03 13:14:41;;;;;;;4.22;1.13;;;;;;;;;;4751961;30;20040;-75
2022/09/03 13:17:14;;;;;;;1.83;1.30;;;;;;;;;;4752896;30;20032;-75
2022/09/03 13:19:59;;;;;;;1.45;1.35;;;;;;;;;;4752876;30;20047;-75
2022/09/03 13:22:35;;;;;;;3.33;1.50;;;;;;;;;;4753045;30;20491;-75
2022/09/03 13:25:20;;;;;;;1.80;1.40;;;;;;;;;;4752718;30;20050;-75
2022/09/03 13:27:55;;;;;;;2.50;1.20;;;;;;;;;;4752441;30;20032;-75
2022/09/03 13:30:22;;;;;;;2.20;1.10;;;;;;;;;;4752793;30;20043;-75
2022/09/03 13:33:12;;;;;;;2.15;1.30;;;;;;;;;;4752735;30;20036;-74
2022/09/03 13:35:38;;;;;;;;;;;;;;;;;;4753029;30;20056;-74
2022/09/03 13:38:05;;;;;;;2.05;1.20;;;;;;;;;;4752725;30;20380;-74
2022/09/03 13:40:35;;;;;;;2.03;1.45;;;;;;;;;;4752625;30;20036;-75
2022/09/03 13:43:04;;;;;;;1.50;1.40;;;;;;;;;;4752475;30;20024;-74
2022/09/03 13:46:00;;;;;;;3.55;1.50;;;;;;;;;;4752392;30;20125;-74
2022/09/03 13:51:18;;;;;;;2.88;1.20;;;;;;;;;;4752521;30;20035;-74
2022/09/03 13:53:57;;;;;;;1.30;1.15;;;;;;;;;;4752134;30;20036;-74
2022/09/03 13:56:34;;;;;;;6.45;1.40;;;;;;;;;;4752107;30;20039;-74
2022/09/03 13:59:16;;;;;;;1.90;1.27;;;;;;;;;;4752301;30;20020;-74
2022/09/03 14:01:49;;;;;;;2.53;1.70;;;;;;;;;;4752144;30;20111;-74
2022/09/03 14:04:25;;;;;;;1.25;1.15;;;;;;;;;;4751996;30;20056;-74
2022/09/03 14:06:57;;;;;;;1.27;1.08;;;;;;;;;;4752384;30;20030;-74
2022/09/03 14:09:43;;;;;;;2.03;1.48;;;;;;;;;;4752022;30;20036;-74
2022/09/03 14:12:19;;;;;;;2.00;1.38;;;;;;;;;;4752156;30;20030;-74
2022/09/03 14:14:52;;;;;;;1.80;1.23;;;;;;;;;;4752034;30;20032;-74
2022/09/03 14:17:26;;;;;;;2.78;1.40;;;;;;;;;;4752162;30;20038;-74
2022/09/03 14:19:59;;;;;;;4.38;1.30;;;;;;;;;;4751849;30;20043;-74
2022/09/03 14:22:29;;;;;;;2.13;1.35;;;;;;;;;;4751980;30;20040;-75
2022/09/03 14:24:58;;;;;;;4.00;1.40;;;;;;;;;;4751022;30;20044;-74
2022/09/03 14:27:26;;;;;;;1.33;1.17;;;;;;;;;;4751936;30;20386;-74
2022/09/03 14:30:05;;;;;;;2.90;1.23;;;;;;;;;;4751987;30;20039;-74
2022/09/03 14:32:37;;;;;;;4.23;1.57;;;;;;;;;;4752110;30;20032;-74
2022/09/03 14:35:06;;;;;;;3.67;1.20;;;;;;;;;;4751983;30;20502;-74
2022/09/03 14:37:36;;;;;;;3.13;1.15;;;;;;;;;;4751938;30;20046;-74
2022/09/03 14:40:08;;;;;;;1.77;1.25;;;;;;;;;;4765199;30;20032;-74
2022/09/03 14:42:53;;;;;;;3.33;1.30;;;;;;;;;;4751669;30;20036;-74
2022/09/03 14:45:22;;;;;;;1.58;1.40;;;;;;;;;;4751597;30;20047;-74
2022/09/03 14:48:07;;;;;;;1.50;1.40;;;;;;;;;;4751786;30;20101;-74
2022/09/03 14:50:41;;;;;;;4.30;1.20;;;;;;;;;;4751548;30;20036;-74
2022/09/03 14:53:11;;;;;;;2.85;1.75;;;;;;;;;;4751029;30;20028;-74
2022/09/03 14:55:48;;;;;;;2.60;1.30;;;;;;;;;;4751448;30;20036;-74
2022/09/03 14:58:24;;;;;;;1.38;1.27;;;;;;;;;;4764963;30;20764;-74
2022/09/03 15:01:05;;;;;;;2.05;1.13;;;;;;;;;;4751441;30;20025;-74
2022/09/03 15:03:50;;;;;;;2.35;1.17;;;;;;;;;;4751610;30;20390;-74
2022/09/03 15:06:20;;;;;;;1.85;1.60;;;;;;;;;;4751534;30;20040;-74
2022/09/03 15:08:52;;;;;;;2.17;1.30;;;;;;;;;;4751615;30;20040;-74
2022/09/03 15:11:21;;;;;;;3.08;1.67;;;;;;;;;;4751811;30;20043;-74